Time;durP1;ratioP1;P1;durP2;ratioP2;P2;SDS_P1;SDS_P2;PMS_P1;PMS_P2;Temp;Humidity;BMP_temperature;BMP_pressure;BME280_temperature;BME280_humidity;BME280_pressure;Samples;Min_cycle;Max_cycle;Signal;HPM_P1;HPM_P2
2023/09/01 00:01:17;;;;;;;4.30;2.60;;;;;;;-141.26;100.00;62741.75;5081495;28;20252;-67
2023/09/01 00:04:03;;;;;;;3.70;2.60;;;;;;;-141.26;100.00;62741.75;5081926;28;20205;-67
2023/09/01 00:06:30;;;;;;;3.97;2.80;;;;;;;-141.26;100.00;62741.75;5063279;28;20214;-66
2023/09/01 00:08:57;;;;;;;4.03;2.80;;;;;;;-141.26;100.00;62741.75;5063296;28;20238;-66
2023/09/01 00:11:24;;;;;;;3.97;2.80;;;;;;;-141.26;100.00;62741.75;5063207;28;20214;-66
2023/09/01 00:13:52;;;;;;;4.53;2.47;;;;;;;-141.26;100.00;62741.75;5079984;28;20206;-66
2023/09/01 00:16:20;;;;;;;3.33;2.60;;;;;;;-141.26;100.00;62741.75;5063304;28;20214;-66
2023/09/01 00:18:48;;;;;;;2.97;2.67;;;;;;;-141.26;100.00;62741.75;5063252;28;20321;-66
2023/09/01 00:21:15;;;;;;;3.60;2.63;;;;;;;-141.26;100.00;62741.75;5079890;28;20341;-66
2023/09/01 00:23:42;;;;;;;2.70;2.47;;;;;;;-141.26;100.00;62741.75;5081581;28;20228;-66
2023/09/01 00:26:09;;;;;;;3.43;2.40;;;;;;;-141.26;100.00;62741.75;5062579;28;20238;-67
2023/09/01 00:28:36;;;;;;;4.17;2.37;;;;;;;-141.26;100.00;62741.75;5063111;28;20218;-67
2023/09/01 00:31:06;;;;;;;3.00;2.40;;;;;;;-141.26;100.00;62741.75;5063101;28;20228;-66
2023/09/01 00:33:33;;;;;;;2.97;2.77;;;;;;;-141.26;100.00;62741.75;5082803;28;20313;-66
2023/09/01 00:36:00;;;;;;;4.23;2.90;;;;;;;-141.26;100.00;62741.75;5084770;28;20221;-66
2023/09/01 00:38:32;;;;;;;3.13;2.63;;;;;;;-141.26;100.00;62741.75;5083401;28;20313;-66
2023/09/01 00:40:59;;;;;;;3.40;2.63;;;;;;;-141.26;100.00;62741.75;5066407;28;20245;-66
2023/09/01 00:43:26;;;;;;;3.33;2.50;;;;;;;-141.26;100.00;62741.75;5066396;28;20222;-67
2023/09/01 00:45:53;;;;;;;2.90;2.67;;;;;;;-141.26;100.00;62741.75;5066031;28;20253;-66
2023/09/01 00:48:23;;;;;;;3.77;2.73;;;;;;;-141.26;100.00;62741.75;5083249;28;20326;-66
2023/09/01 00:50:51;;;;;;;3.03;2.60;;;;;;;-141.26;100.00;62741.75;5066440;28;20214;-66
2023/09/01 00:53:19;;;;;;;2.60;2.40;;;;;;;-141.26;100.00;62741.75;5083029;28;20222;-66
2023/09/01 00:55:46;;;;;;;3.20;2.90;;;;;;;-141.26;100.00;62741.75;5065938;28;20229;-66
2023/09/01 00:58:13;;;;;;;3.03;2.60;;;;;;;-141.26;100.00;62741.75;5066193;28;20210;-66
2023/09/01 01:00:40;;;;;;;2.77;2.57;;;;;;;-141.26;100.00;62741.75;5082800;28;20210;-66
2023/09/01 01:03:10;;;;;;;3.23;2.90;;;;;;;-141.26;100.00;62741.75;5066136;28;20213;-66
2023/09/01 01:05:48;;;;;;;2.47;2.27;;;;;;;-141.26;100.00;62741.75;5065889;28;20252;-66
2023/09/01 01:08:38;;;;;;;2.87;2.60;;;;;;;-141.26;100.00;62741.75;5065898;28;20221;-66
2023/09/01 01:11:12;;;;;;;3.90;2.70;;;;;;;-141.26;100.00;62741.75;5082869;28;20252;-67
2023/09/01 01:13:45;;;;;;;3.03;2.30;;;;;;;-141.26;100.00;62741.75;5065754;28;20222;-66
2023/09/01 01:16:15;;;;;;;4.70;2.80;;;;;;;-141.26;100.00;62741.75;5082602;28;20238;-66
2023/09/01 01:18:43;;;;;;;3.07;2.77;;;;;;;-141.26;100.00;62741.75;5065769;28;20224;-66
2023/09/01 01:21:22;;;;;;;3.20;2.90;;;;;;;-141.26;100.00;62741.75;5065699;28;20233;-66
2023/09/01 01:23:53;;;;;;;3.00;2.70;;;;;;;-141.26;100.00;62741.75;5065773;28;20272;-66
2023/09/01 01:26:23;;;;;;;4.83;2.87;;;;;;;-141.26;100.00;62741.75;5078830;28;20235;-66
2023/09/01 01:28:50;;;;;;;2.70;2.40;;;;;;;-141.26;100.00;62741.75;5078916;28;20223;-66
2023/09/01 01:31:18;;;;;;;3.43;2.53;;;;;;;-141.26;100.00;62741.75;5062083;28;20233;-67
2023/09/01 01:33:49;;;;;;;2.53;2.33;;;;;;;-141.26;100.00;62741.75;5062146;28;20250;-67
2023/09/01 01:36:20;;;;;;;3.50;2.50;;;;;;;-141.26;100.00;62741.75;5062178;28;20227;-67
2023/09/01 01:38:57;;;;;;;2.50;2.20;;;;;;;-141.26;100.00;62741.75;5062094;28;20242;-67
2023/09/01 01:41:32;;;;;;;2.70;2.50;;;;;;;-141.26;100.00;62741.75;5061971;28;20238;-66
2023/09/01 01:44:02;;;;;;;2.63;2.43;;;;;;;-141.26;100.00;62741.75;5060953;28;20217;-66
2023/09/01 01:46:29;;;;;;;2.43;2.20;;;;;;;-141.26;100.00;62741.75;5061915;28;20218;-66
2023/09/01 01:48:58;;;;;;;4.60;2.80;;;;;;;-141.26;100.00;62741.75;5062001;28;20222;-66
2023/09/01 01:51:25;;;;;;;3.00;2.40;;;;;;;-141.26;100.00;62741.75;5061944;28;20258;-66
2023/09/01 01:53:54;;;;;;;2.43;2.33;;;;;;;-141.26;100.00;62741.75;5061861;28;20261;-66
2023/09/01 01:56:21;;;;;;;2.93;2.30;;;;;;;-141.26;100.00;62741.75;5061892;28;20223;-66
2023/09/01 01:58:48;;;;;;;4.00;2.60;;;;;;;-141.26;100.00;62741.75;5061676;28;20220;-67
2023/09/01 02:01:15;;;;;;;3.70;2.90;;;;;;;-141.26;100.00;62741.75;5061733;28;20219;-67
2023/09/01 02:03:42;;;;;;;4.37;2.70;;;;;;;-141.26;100.00;62741.75;5063297;28;20218;-67
2023/09/01 02:06:09;;;;;;;2.93;2.60;;;;;;;-141.26;100.00;62741.75;5061784;28;20285;-67
2023/09/01 02:08:37;;;;;;;2.87;2.67;;;;;;;-141.26;100.00;62741.75;5061837;28;20230;-67
2023/09/01 02:11:05;;;;;;;3.60;2.70;;;;;;;-141.26;100.00;62741.75;5061608;28;20234;-67
2023/09/01 02:13:32;;;;;;;2.80;2.60;;;;;;;-141.26;100.00;62741.75;5078220;28;20230;-67
2023/09/01 02:15:59;;;;;;;3.40;2.50;;;;;;;-141.26;100.00;62741.75;5061493;28;20323;-67
2023/09/01 02:18:26;;;;;;;3.60;2.77;;;;;;;-141.26;100.00;62741.75;5061572;28;20214;-67
2023/09/01 02:20:53;;;;;;;2.70;2.50;;;;;;;-141.26;100.00;62741.75;5061365;28;20222;-67
2023/09/01 02:23:20;;;;;;;3.17;2.80;;;;;;;-141.26;100.00;62741.75;5062749;28;20226;-67
2023/09/01 02:25:48;;;;;;;3.30;2.63;;;;;;;-141.26;100.00;62741.75;5064265;28;20218;-67
2023/09/01 02:28:17;;;;;;;3.20;2.90;;;;;;;-141.26;100.00;62741.75;5081829;28;20260;-67
2023/09/01 02:30:44;;;;;;;2.87;2.60;;;;;;;-141.26;100.00;62741.75;5064849;28;20265;-67
2023/09/01 02:33:12;;;;;;;2.70;2.50;;;;;;;-141.26;100.00;62741.75;5064618;28;20225;-67
2023/09/01 02:35:44;;;;;;;3.17;2.87;;;;;;;-141.26;100.00;62741.75;5064597;28;20214;-67
2023/09/01 02:38:11;;;;;;;2.70;2.50;;;;;;;-141.26;100.00;62741.75;5083239;28;20213;-67
2023/09/01 02:40:40;;;;;;;2.80;2.60;;;;;;;-141.26;100.00;62741.75;5064594;28;20275;-67
2023/09/01 02:43:07;;;;;;;3.10;2.80;;;;;;;-141.26;100.00;62741.75;5080981;28;20292;-67
2023/09/01 02:45:36;;;;;;;2.77;2.57;;;;;;;-141.26;100.00;62741.75;5064600;28;20218;-67
2023/09/01 02:48:03;;;;;;;3.77;2.73;;;;;;;-141.26;100.00;62741.75;5081248;28;20225;-67
2023/09/01 02:50:30;;;;;;;3.33;3.03;;;;;;;-141.26;100.00;62741.75;5064352;28;20309;-67
2023/09/01 02:52:58;;;;;;;2.80;2.60;;;;;;;-141.26;100.00;62741.75;5081309;28;20217;-67
2023/09/01 02:55:25;;;;;;;2.83;2.63;;;;;;;-141.26;100.00;62741.75;5063980;28;20279;-67
2023/09/01 02:57:52;;;;;;;3.80;3.40;;;;;;;-141.26;100.00;62741.75;5081148;28;20219;-67
2023/09/01 03:00:21;;;;;;;3.20;3.00;;;;;;;-141.26;100.00;62741.75;5064141;28;20215;-67
2023/09/01 03:02:51;;;;;;;4.13;3.27;;;;;;;-141.26;100.00;62741.75;5081046;28;20232;-67
2023/09/01 03:05:18;;;;;;;3.07;2.87;;;;;;;-141.26;100.00;62741.75;5081188;28;20223;-67
2023/09/01 03:07:46;;;;;;;3.03;2.83;;;;;;;-141.26;100.00;62741.75;5064263;28;20222;-66
2023/09/01 03:10:13;;;;;;;5.00;3.17;;;;;;;-141.26;100.00;62741.75;5080728;28;20224;-66
2023/09/01 03:12:40;;;;;;;7.27;3.33;;;;;;;-141.26;100.00;62741.75;5064112;28;20214;-66
2023/09/01 03:15:09;;;;;;;3.67;2.60;;;;;;;-141.26;100.00;62741.75;5082327;28;20214;-66
2023/09/01 03:17:36;;;;;;;3.13;2.87;;;;;;;-141.26;100.00;62741.75;5080832;28;20225;-67
2023/09/01 03:20:08;;;;;;;4.63;2.90;;;;;;;-141.26;100.00;62741.75;5064049;28;20243;-67
2023/09/01 03:22:35;;;;;;;5.03;3.13;;;;;;;-141.26;100.00;62741.75;5063884;28;20242;-66
2023/09/01 03:25:03;;;;;;;3.63;3.30;;;;;;;-141.26;100.00;62741.75;5080580;28;20224;-66
2023/09/01 03:27:30;;;;;;;5.37;3.27;;;;;;;-141.26;100.00;62741.75;5063433;28;20240;-66
2023/09/01 03:29:57;;;;;;;3.70;3.07;;;;;;;-141.26;100.00;62741.75;5082164;28;20300;-66
2023/09/01 03:32:31;;;;;;;3.53;3.23;;;;;;;-141.26;100.00;62741.75;5063864;28;20225;-66
2023/09/01 03:34:58;;;;;;;3.67;2.90;;;;;;;-141.26;100.00;62741.75;5063762;28;20232;-66
2023/09/01 03:37:27;;;;;;;3.73;3.20;;;;;;;-141.26;100.00;62741.75;5063583;28;20231;-67
2023/09/01 03:39:54;;;;;;;3.97;3.67;;;;;;;-141.26;100.00;62741.75;5063422;28;20217;-66
2023/09/01 03:42:21;;;;;;;4.87;3.23;;;;;;;-141.26;100.00;62741.75;5080322;28;20254;-66
2023/09/01 03:44:50;;;;;;;3.80;3.37;;;;;;;-141.26;100.00;62741.75;5063748;28;20257;-66
2023/09/01 03:47:17;;;;;;;6.27;4.30;;;;;;;-141.26;100.00;62741.75;5063528;28;20208;-66
2023/09/01 03:49:44;;;;;;;5.90;3.50;;;;;;;-141.26;100.00;62741.75;5081872;28;20227;-66
2023/09/01 03:52:11;;;;;;;3.80;3.50;;;;;;;-141.26;100.00;62741.75;5063602;28;20225;-66
2023/09/01 03:54:40;;;;;;;3.90;3.43;;;;;;;-141.26;100.00;62741.75;5063425;28;20281;-66
2023/09/01 03:57:08;;;;;;;4.03;3.50;;;;;;;-141.26;100.00;62741.75;5080346;28;20218;-66
2023/09/01 03:59:35;;;;;;;3.67;3.37;;;;;;;-141.26;100.00;62741.75;5063407;28;20241;-66
2023/09/01 04:02:04;;;;;;;4.73;3.80;;;;;;;-141.26;100.00;62741.75;5063467;28;20229;-66
2023/09/01 04:04:33;;;;;;;4.00;3.17;;;;;;;-141.26;100.00;62741.75;5063370;28;20218;-66
2023/09/01 04:07:00;;;;;;;4.00;3.70;;;;;;;-141.26;100.00;62741.75;5080849;28;20313;-66
2023/09/01 04:09:27;;;;;;;3.80;3.50;;;;;;;-141.26;100.00;62741.75;5066823;28;20221;-66
2023/09/01 04:11:56;;;;;;;4.03;3.33;;;;;;;-141.26;100.00;62741.75;5066916;28;20224;-66
2023/09/01 04:14:23;;;;;;;3.93;3.63;;;;;;;-141.26;100.00;62741.75;5066933;28;20222;-66
2023/09/01 04:16:50;;;;;;;3.77;3.33;;;;;;;-141.26;100.00;62741.75;5083813;28;20304;-66
2023/09/01 04:19:18;;;;;;;3.33;3.03;;;;;;;-141.26;100.00;62741.75;5083783;28;20219;-66
2023/09/01 04:21:45;;;;;;;4.93;3.13;;;;;;;-141.26;100.00;62741.75;5066731;28;20226;-66
2023/09/01 04:24:12;;;;;;;3.77;3.20;;;;;;;-141.26;100.00;62741.75;5066746;28;20219;-66
2023/09/01 04:26:39;;;;;;;3.67;3.37;;;;;;;-141.26;100.00;62741.75;5084329;28;20251;-66
2023/09/01 04:29:08;;;;;;;3.40;3.10;;;;;;;-141.26;100.00;62741.75;5066644;28;20227;-66
2023/09/01 04:31:35;;;;;;;4.67;3.17;;;;;;;-141.26;100.00;62741.75;5066541;28;20219;-66
2023/09/01 04:34:04;;;;;;;3.80;3.40;;;;;;;-141.26;100.00;62741.75;5066659;28;20312;-66
2023/09/01 04:36:33;;;;;;;3.50;3.20;;;;;;;-141.26;100.00;62741.75;5083426;28;20279;-67
2023/09/01 04:39:03;;;;;;;3.77;3.40;;;;;;;-141.26;100.00;62741.75;5066327;28;20225;-66
2023/09/01 04:41:31;;;;;;;3.47;3.17;;;;;;;-141.26;100.00;62741.75;5066336;28;20219;-66
2023/09/01 04:43:58;;;;;;;3.33;3.03;;;;;;;-141.26;100.00;62741.75;5082983;28;20294;-66
2023/09/01 04:46:27;;;;;;;3.70;3.40;;;;;;;-141.26;100.00;62741.75;5066353;28;20222;-66
2023/09/01 04:48:54;;;;;;;3.33;3.10;;;;;;;-141.26;100.00;62741.75;5066256;28;20306;-66
2023/09/01 04:51:22;;;;;;;3.50;3.13;;;;;;;-141.26;100.00;62741.75;5066181;28;20347;-66
2023/09/01 04:53:49;;;;;;;4.47;3.50;;;;;;;-141.26;100.00;62741.75;5066202;28;20316;-66
2023/09/01 04:56:16;;;;;;;3.20;3.00;;;;;;;-141.26;100.00;62741.75;5066230;28;20250;-66
2023/09/01 04:58:43;;;;;;;4.70;3.20;;;;;;;-141.26;100.00;62741.75;5083200;28;20229;-66
2023/09/01 05:01:10;;;;;;;3.53;3.23;;;;;;;-141.26;100.00;62741.75;5066240;28;20218;-66
2023/09/01 05:03:39;;;;;;;4.00;3.63;;;;;;;-141.26;100.00;62741.75;5065888;28;20253;-66
2023/09/01 05:06:07;;;;;;;4.10;3.70;;;;;;;-141.26;100.00;62741.75;5066113;28;20288;-66
2023/09/01 05:08:35;;;;;;;3.27;3.07;;;;;;;-141.26;100.00;62741.75;5084343;28;20317;-66
2023/09/01 05:11:02;;;;;;;4.80;2.83;;;;;;;-141.26;100.00;62741.75;5066032;28;20314;-66
2023/09/01 05:13:29;;;;;;;3.70;3.40;;;;;;;-141.26;100.00;62741.75;5065864;28;20307;-66
2023/09/01 05:15:56;;;;;;;4.70;3.03;;;;;;;-141.26;100.00;62741.75;5082713;28;20233;-66
2023/09/01 05:18:23;;;;;;;3.30;3.10;;;;;;;-141.26;100.00;62741.75;5082429;28;20210;-66
2023/09/01 05:20:55;;;;;;;3.13;2.93;;;;;;;-141.26;100.00;62741.75;5082575;28;20226;-66
2023/09/01 05:23:23;;;;;;;3.27;3.03;;;;;;;-141.26;100.00;62741.75;5083836;28;20284;-66
2023/09/01 05:25:53;;;;;;;3.83;3.27;;;;;;;-141.26;100.00;62741.75;5065316;28;20236;-66
2023/09/01 05:28:21;;;;;;;3.20;2.90;;;;;;;-141.26;100.00;62741.75;5082569;28;20224;-66
2023/09/01 05:30:48;;;;;;;3.67;3.33;;;;;;;-141.26;100.00;62741.75;5065590;28;20225;-66
2023/09/01 05:33:15;;;;;;;3.90;3.10;;;;;;;-141.26;100.00;62741.75;5065620;28;20236;-66
2023/09/01 05:35:42;;;;;;;3.20;2.90;;;;;;;-141.26;100.00;62741.75;5065600;28;20230;-66
2023/09/01 05:38:11;;;;;;;5.90;3.30;;;;;;;-141.26;100.00;62741.75;5082470;28;20334;-66
2023/09/01 05:40:38;;;;;;;4.57;3.23;;;;;;;-141.26;100.00;62741.75;5082465;28;20325;-66
2023/09/01 05:43:05;;;;;;;3.50;3.20;;;;;;;-141.26;100.00;62741.75;5065370;28;20243;-66
2023/09/01 05:45:34;;;;;;;3.90;3.30;;;;;;;-141.26;100.00;62741.75;5065334;28;20329;-66
2023/09/01 05:48:01;;;;;;;3.50;3.30;;;;;;;-141.26;100.00;62741.75;5065348;28;20245;-66
2023/09/01 05:50:29;;;;;;;3.63;3.20;;;;;;;-141.26;100.00;62741.75;5082175;28;20232;-66
2023/09/01 05:52:56;;;;;;;3.47;2.70;;;;;;;-141.26;100.00;62741.75;5065155;28;20222;-67
2023/09/01 05:55:25;;;;;;;3.43;3.13;;;;;;;-141.26;100.00;62741.75;5082070;28;20275;-67
2023/09/01 05:57:52;;;;;;;3.43;3.13;;;;;;;-141.26;100.00;62741.75;5065120;28;20217;-67
2023/09/01 06:00:20;;;;;;;3.63;3.33;;;;;;;-141.26;100.00;62741.75;5064969;28;20226;-67
2023/09/01 06:02:47;;;;;;;3.40;3.10;;;;;;;-141.26;100.00;62741.75;5064906;28;20272;-66
2023/09/01 06:05:14;;;;;;;4.07;3.20;;;;;;;-141.26;100.00;62741.75;5064917;28;20222;-66
2023/09/01 06:07:41;;;;;;;3.00;2.77;;;;;;;-141.26;100.00;62741.75;5083505;28;20222;-66
2023/09/01 06:10:09;;;;;;;3.37;2.90;;;;;;;-141.26;100.00;62741.75;5083476;28;20252;-66
2023/09/01 06:12:38;;;;;;;3.90;3.37;;;;;;;-141.26;100.00;62741.75;5081714;28;20226;-66
2023/09/01 06:15:06;;;;;;;3.40;3.07;;;;;;;-141.26;100.00;62741.75;5064991;28;20241;-66
2023/09/01 06:17:33;;;;;;;3.20;2.90;;;;;;;-141.26;100.00;62741.75;5064826;28;20225;-66
2023/09/01 06:20:00;;;;;;;3.27;2.97;;;;;;;-141.26;100.00;62741.75;5064742;28;20242;-66
2023/09/01 06:22:27;;;;;;;3.23;3.03;;;;;;;-141.26;100.00;62741.75;5064944;28;20230;-66
2023/09/01 06:24:55;;;;;;;3.50;3.20;;;;;;;-141.26;100.00;62741.75;5064743;28;20284;-66
2023/09/01 06:27:22;;;;;;;3.00;2.73;;;;;;;-141.26;100.00;62741.75;5064152;28;20245;-66
2023/09/01 06:29:50;;;;;;;4.13;2.87;;;;;;;-141.26;100.00;62741.75;5063824;28;20210;-66
2023/09/01 06:32:17;;;;;;;3.30;2.83;;;;;;;-141.26;100.00;62741.75;5081491;28;20226;-66
2023/09/01 06:34:44;;;;;;;2.97;2.67;;;;;;;-141.26;100.00;62741.75;5082782;28;20218;-66
2023/09/01 06:37:11;;;;;;;3.60;3.07;;;;;;;-141.26;100.00;62741.75;5064550;28;20252;-66
2023/09/01 06:39:39;;;;;;;3.63;3.03;;;;;;;-141.26;100.00;62741.75;5064543;28;20222;-66
2023/09/01 06:42:07;;;;;;;3.20;2.90;;;;;;;-141.26;100.00;62741.75;5064534;28;20226;-66
2023/09/01 06:44:34;;;;;;;3.07;2.83;;;;;;;-141.26;100.00;62741.75;5064297;28;20233;-66
2023/09/01 06:47:03;;;;;;;4.07;2.80;;;;;;;-141.26;100.00;62741.75;5081263;28;20293;-67
2023/09/01 06:49:30;;;;;;;2.97;2.57;;;;;;;-141.26;100.00;62741.75;5064257;28;20214;-67
2023/09/01 06:51:58;;;;;;;2.90;2.70;;;;;;;-141.26;100.00;62741.75;5082747;28;20218;-67
2023/09/01 06:54:26;;;;;;;3.30;2.57;;;;;;;-141.26;100.00;62741.75;5064354;28;20222;-67
2023/09/01 06:56:53;;;;;;;3.43;2.93;;;;;;;-141.26;100.00;62741.75;5064384;28;20257;-66
2023/09/01 06:59:20;;;;;;;3.33;2.67;;;;;;;-141.26;100.00;62741.75;5064115;28;20225;-66
2023/09/01 07:01:47;;;;;;;3.67;2.80;;;;;;;-141.26;100.00;62741.75;5064296;28;20295;-66
2023/09/01 07:04:16;;;;;;;3.90;2.77;;;;;;;-141.26;100.00;62741.75;5064032;28;20262;-66
2023/09/01 07:06:43;;;;;;;3.60;2.77;;;;;;;-141.26;100.00;62741.75;5064056;28;20317;-66
2023/09/01 07:09:10;;;;;;;2.97;2.63;;;;;;;-141.26;100.00;62741.75;5080925;28;20313;-66
2023/09/01 07:11:37;;;;;;;3.50;2.90;;;;;;;-141.26;100.00;62741.75;5063920;28;20241;-66
2023/09/01 07:14:04;;;;;;;3.67;2.63;;;;;;;-141.26;100.00;62741.75;5063980;28;20221;-66
2023/09/01 07:16:31;;;;;;;2.60;2.40;;;;;;;-141.26;100.00;62741.75;5080878;28;20222;-66
2023/09/01 07:18:58;;;;;;;2.80;2.60;;;;;;;-141.26;100.00;62741.75;5064046;28;20230;-66
2023/09/01 07:21:27;;;;;;;2.60;2.33;;;;;;;-141.26;100.00;62741.75;5063901;28;20210;-66
2023/09/01 07:23:54;;;;;;;3.33;2.40;;;;;;;-141.26;100.00;62741.75;5063837;28;20233;-66
2023/09/01 07:26:21;;;;;;;3.10;2.60;;;;;;;-141.26;100.00;62741.75;5063175;28;20311;-66
2023/09/01 07:28:48;;;;;;;3.70;2.53;;;;;;;-141.26;100.00;62741.75;5080755;28;20222;-66
2023/09/01 07:31:15;;;;;;;3.80;2.57;;;;;;;-141.26;100.00;62741.75;5063648;28;20228;-66
2023/09/01 07:33:43;;;;;;;3.00;2.80;;;;;;;-141.26;100.00;62741.75;5063765;28;20250;-66
2023/09/01 07:36:11;;;;;;;2.73;2.40;;;;;;;-141.26;100.00;62741.75;5081937;28;20302;-66
2023/09/01 07:38:39;;;;;;;3.10;2.10;;;;;;;-141.26;100.00;62741.75;5063708;28;20248;-66
2023/09/01 07:41:08;;;;;;;2.80;2.60;;;;;;;-141.26;100.00;62741.75;5081273;28;20214;-66
2023/09/01 07:43:35;;;;;;;2.40;2.20;;;;;;;-141.26;100.00;62741.75;5081410;28;20231;-66
2023/09/01 07:46:02;;;;;;;2.37;2.27;;;;;;;-141.26;100.00;62741.75;5063469;28;20224;-66
2023/09/01 07:48:30;;;;;;;5.23;2.50;;;;;;;-141.26;100.00;62741.75;5080347;28;20220;-66
2023/09/01 07:50:57;;;;;;;2.67;2.33;;;;;;;-141.26;100.00;62741.75;5080360;28;20271;-66
2023/09/01 07:53:24;;;;;;;2.40;2.20;;;;;;;-141.26;100.00;62741.75;5063582;28;20223;-66
2023/09/01 07:55:52;;;;;;;3.80;2.10;;;;;;;-141.26;100.00;62741.75;5080347;28;20220;-66
2023/09/01 07:58:20;;;;;;;4.43;2.73;;;;;;;-141.26;100.00;62741.75;5080404;28;20217;-66
2023/09/01 08:00:47;;;;;;;2.30;2.10;;;;;;;-141.26;100.00;62741.75;5081595;28;20225;-66
2023/09/01 08:03:14;;;;;;;2.23;1.80;;;;;;;-141.26;100.00;62741.75;5063468;28;20237;-66
2023/09/01 08:05:41;;;;;;;2.17;1.70;;;;;;;-141.26;100.00;62741.75;5081660;28;20226;-66
2023/09/01 08:08:12;;;;;;;3.40;1.97;;;;;;;-141.26;100.00;62741.75;5080185;28;20282;-66
2023/09/01 08:10:39;;;;;;;2.93;2.00;;;;;;;-141.26;100.00;62741.75;5063497;28;20217;-66
2023/09/01 08:13:08;;;;;;;2.27;2.10;;;;;;;-141.26;100.00;62741.75;5081510;28;20211;-66
2023/09/01 08:15:35;;;;;;;4.00;2.10;;;;;;;-141.26;100.00;62741.75;5079899;28;20220;-66
2023/09/01 08:18:02;;;;;;;2.27;1.90;;;;;;;-141.26;100.00;62741.75;5063124;28;20218;-66
2023/09/01 08:20:29;;;;;;;2.57;2.37;;;;;;;-141.26;100.00;62741.75;5080202;28;20312;-66
2023/09/01 08:22:57;;;;;;;2.33;2.00;;;;;;;-141.26;100.00;62741.75;5081436;28;20247;-66
2023/09/01 08:25:24;;;;;;;2.00;1.90;;;;;;;-141.26;100.00;62741.75;5063033;28;20237;-66
2023/09/01 08:27:51;;;;;;;2.27;2.10;;;;;;;-141.26;100.00;62741.75;5081079;28;20245;-66
2023/09/01 08:30:20;;;;;;;2.70;2.00;;;;;;;-141.26;100.00;62741.75;5079796;28;20243;-66
2023/09/01 08:32:47;;;;;;;2.37;2.00;;;;;;;-141.26;100.00;62741.75;5062988;28;20319;-66
2023/09/01 08:35:15;;;;;;;3.20;2.13;;;;;;;-141.26;100.00;62741.75;5063019;28;20222;-66
2023/09/01 08:37:42;;;;;;;2.13;1.80;;;;;;;-141.26;100.00;62741.75;5063210;28;20229;-66
2023/09/01 08:40:11;;;;;;;2.27;1.90;;;;;;;-141.26;100.00;62741.75;5081376;28;20222;-67
2023/09/01 08:42:46;;;;;;;1.80;1.70;;;;;;;-141.26;100.00;62741.75;5063257;28;20308;-66
2023/09/01 08:45:14;;;;;;;1.93;1.70;;;;;;;-141.26;100.00;62741.75;5062740;28;20233;-66
2023/09/01 08:47:46;;;;;;;1.97;1.87;;;;;;;-141.26;100.00;62741.75;5079781;28;20226;-66
2023/09/01 08:50:13;;;;;;;2.63;2.03;;;;;;;-141.26;100.00;62741.75;5080890;28;20213;-66
2023/09/01 08:52:42;;;;;;;2.20;1.90;;;;;;;-141.26;100.00;62741.75;5079699;28;20206;-66
2023/09/01 08:55:10;;;;;;;2.27;1.80;;;;;;;-141.26;100.00;62741.75;5066212;28;20222;-67
2023/09/01 08:57:38;;;;;;;2.33;2.13;;;;;;;-141.26;100.00;62741.75;5066288;28;20268;-66
2023/09/01 09:00:08;;;;;;;2.20;2.00;;;;;;;-141.26;100.00;62741.75;5066058;28;20222;-66
2023/09/01 09:02:36;;;;;;;3.50;2.30;;;;;;;-141.26;100.00;62741.75;5066161;28;20222;-66
2023/09/01 09:05:06;;;;;;;1.90;1.80;;;;;;;-141.26;100.00;62741.75;5082793;28;20226;-66
2023/09/01 09:07:33;;;;;;;2.17;1.93;;;;;;;-141.26;100.00;62741.75;5084749;28;20211;-66
2023/09/01 09:10:03;;;;;;;1.80;1.70;;;;;;;-141.26;100.00;62741.75;5066031;28;20218;-66
2023/09/01 09:12:37;;;;;;;2.00;1.80;;;;;;;-141.26;100.00;62741.75;5065939;28;20226;-66
2023/09/01 09:15:05;;;;;;;2.10;1.90;;;;;;;-141.26;100.00;62741.75;5065878;28;20218;-66
2023/09/01 09:17:44;;;;;;;2.07;1.90;;;;;;;-141.26;100.00;62741.75;5082667;28;20222;-66
2023/09/01 09:20:15;;;;;;;3.23;2.00;;;;;;;-141.26;100.00;62741.75;5083990;28;20325;-66
2023/09/01 09:22:53;;;;;;;2.30;2.10;;;;;;;-141.26;100.00;62741.75;5065917;28;20283;-66
2023/09/01 09:25:28;;;;;;;2.13;2.00;;;;;;;-141.26;100.00;62741.75;5083835;28;20233;-66
2023/09/01 09:27:56;;;;;;;1.90;1.63;;;;;;;-141.26;100.00;62741.75;5082241;28;20283;-66
2023/09/01 09:30:26;;;;;;;1.90;1.70;;;;;;;-141.26;100.00;62741.75;5065666;28;20312;-66
2023/09/01 09:33:11;;;;;;;1.77;1.67;;;;;;;-141.26;100.00;62741.75;5065501;28;20321;-66
2023/09/01 09:35:52;;;;;;;1.93;1.70;;;;;;;-141.26;100.00;62741.75;5082555;28;20218;-66
2023/09/01 09:38:19;;;;;;;2.03;1.77;;;;;;;-141.26;100.00;62741.75;5082581;28;20305;-66
2023/09/01 09:40:56;;;;;;;2.67;1.60;;;;;;;-141.26;100.00;62741.75;5083776;28;20249;-66
2023/09/01 09:43:23;;;;;;;1.73;1.50;;;;;;;-141.26;100.00;62741.75;5083909;28;20198;-66
2023/09/01 09:45:53;;;;;;;2.23;1.60;;;;;;;-141.26;100.00;62741.75;5065236;28;20264;-66
2023/09/01 09:48:20;;;;;;;1.70;1.60;;;;;;;-141.26;100.00;62741.75;5065368;28;20230;-66
2023/09/01 09:50:51;;;;;;;2.63;1.60;;;;;;;-141.26;100.00;62741.75;5065474;28;20244;-66
2023/09/01 09:53:22;;;;;;;1.70;1.60;;;;;;;-141.26;100.00;62741.75;5065428;28;20305;-66
2023/09/01 09:55:51;;;;;;;1.77;1.50;;;;;;;-141.26;100.00;62741.75;5082111;28;20234;-66
2023/09/01 09:58:19;;;;;;;1.47;1.37;;;;;;;-141.26;100.00;62741.75;5065099;28;20318;-66
2023/09/01 10:00:50;;;;;;;1.50;1.40;;;;;;;-141.26;100.00;62741.75;5083471;28;20284;-67
2023/09/01 10:03:21;;;;;;;4.97;1.27;;;;;;;-141.26;100.00;62741.75;5065119;28;20232;-66
2023/09/01 10:05:50;;;;;;;1.33;1.20;;;;;;;-141.26;100.00;62741.75;5064089;28;20237;-66
2023/09/01 10:08:19;;;;;;;1.23;1.20;;;;;;;-141.26;100.00;62741.75;5083307;28;20229;-66
2023/09/01 10:10:50;;;;;;;1.30;1.10;;;;;;;-141.26;100.00;62741.75;5065009;28;20217;-66
2023/09/01 10:13:17;;;;;;;1.37;1.20;;;;;;;-141.26;100.00;62741.75;5064912;28;20220;-66
2023/09/01 10:15:46;;;;;;;1.63;1.23;;;;;;;-141.26;100.00;62741.75;5065049;28;20248;-66
2023/09/01 10:18:13;;;;;;;1.67;1.40;;;;;;;-141.26;100.00;62741.75;5064978;28;20225;-66
2023/09/01 10:20:43;;;;;;;1.47;1.23;;;;;;;-141.26;100.00;62741.75;5081755;28;20249;-66
2023/09/01 10:23:11;;;;;;;1.63;1.30;;;;;;;-141.26;100.00;62741.75;5064782;28;20226;-66
2023/09/01 10:25:38;;;;;;;0.93;0.90;;;;;;;-141.26;100.00;62741.75;5082396;28;20229;-67
2023/09/01 10:28:10;;;;;;;0.90;0.90;;;;;;;-141.26;100.00;62741.75;5064699;28;20226;-66
2023/09/01 10:30:39;;;;;;;0.90;0.90;;;;;;;-141.26;100.00;62741.75;5083157;28;20210;-66
2023/09/01 10:33:11;;;;;;;0.73;0.73;;;;;;;-141.26;100.00;62741.75;5064809;28;20224;-66
2023/09/01 10:35:40;;;;;;;1.20;0.80;;;;;;;-141.26;100.00;62741.75;5081400;28;20229;-66
2023/09/01 10:38:18;;;;;;;0.73;0.73;;;;;;;-141.26;100.00;62741.75;5064508;28;20218;-66
2023/09/01 10:40:48;;;;;;;0.80;0.80;;;;;;;-141.26;100.00;62741.75;5064330;28;20264;-66
2023/09/01 10:43:48;;;;;;;1.30;0.83;;;;;;;-141.26;100.00;62741.75;5064386;28;20293;-66
2023/09/01 10:46:27;;;;;;;1.47;0.70;;;;;;;-141.26;100.00;62741.75;5064585;28;20244;-66
2023/09/01 10:48:56;;;;;;;1.50;0.80;;;;;;;-141.26;100.00;62741.75;5064580;28;20233;-66
2023/09/01 10:51:26;;;;;;;0.80;0.80;;;;;;;-141.26;100.00;62741.75;5082646;28;20218;-66
2023/09/01 10:53:55;;;;;;;0.77;0.77;;;;;;;-141.26;100.00;62741.75;5064257;28;20253;-66
2023/09/01 10:56:25;;;;;;;0.90;0.90;;;;;;;-141.26;100.00;62741.75;5082952;28;20206;-66
2023/09/01 10:58:53;;;;;;;1.03;0.83;;;;;;;-141.26;100.00;62741.75;5064256;28;20224;-66
2023/09/01 11:01:31;;;;;;;1.27;0.97;;;;;;;-141.26;100.00;62741.75;5064252;28;20218;-67
2023/09/01 11:04:32;;;;;;;3.50;1.03;;;;;;;-141.26;100.00;62741.75;5081129;28;20233;-66
2023/09/01 11:07:03;;;;;;;0.80;0.73;;;;;;;-141.26;100.00;62741.75;5082686;28;20210;-66
2023/09/01 11:09:48;;;;;;;1.17;0.73;;;;;;;-141.26;100.00;62741.75;5064004;28;20230;-66
2023/09/01 11:12:16;;;;;;;1.63;0.80;;;;;;;-141.26;100.00;62741.75;5064106;28;20272;-66
2023/09/01 11:14:55;;;;;;;0.80;0.63;;;;;;;-141.26;100.00;62741.75;5063764;28;20218;-66
2023/09/01 11:17:41;;;;;;;1.23;1.00;;;;;;;-141.26;100.00;62741.75;5082286;28;20213;-66